sensor_id;sensor_type;location;lat;lon;timestamp;pressure;altitude;pressure_sealevel;temperature;humidity
84445;BME280;74683;48.402;10.596;2024-01-30T00:01:55;97920.72;;;-4.17;95.46
84445;BME280;74683;48.402;10.596;2024-01-30T00:04:22;97919.06;;;-4.18;95.58
84445;BME280;74683;48.402;10.596;2024-01-30T00:06:50;97918.47;;;-4.20;95.09
84445;BME280;74683;48.402;10.596;2024-01-30T00:09:17;97915.56;;;-4.18;95.42
84445;BME280;74683;48.402;10.596;2024-01-30T00:11:44;97925.03;;;-4.16;96.00
84445;BME280;74683;48.402;10.596;2024-01-30T00:14:11;97917.19;;;-4.17;95.34
84445;BME280;74683;48.402;10.596;2024-01-30T00:16:37;97917.47;;;-4.25;95.57
84445;BME280;74683;48.402;10.596;2024-01-30T00:19:04;97916.50;;;-4.31;95.69
84445;BME280;74683;48.402;10.596;2024-01-30T00:21:30;97928.28;;;-4.32;94.96
84445;BME280;74683;48.402;10.596;2024-01-30T00:23:57;97924.94;;;-4.27;95.40
84445;BME280;74683;48.402;10.596;2024-01-30T00:26:24;97921.66;;;-4.29;95.66
84445;BME280;74683;48.402;10.596;2024-01-30T00:28:50;97933.03;;;-4.34;96.04
84445;BME280;74683;48.402;10.596;2024-01-30T00:31:17;97920.28;;;-4.39;95.12
84445;BME280;74683;48.402;10.596;2024-01-30T00:33:44;97928.56;;;-4.40;95.30
84445;BME280;74683;48.402;10.596;2024-01-30T00:36:11;97933.31;;;-4.42;95.96
84445;BME280;74683;48.402;10.596;2024-01-30T00:38:37;97932.09;;;-4.46;95.23
84445;BME280;74683;48.402;10.596;2024-01-30T00:41:04;97932.31;;;-4.48;94.96
84445;BME280;74683;48.402;10.596;2024-01-30T00:43:31;97930.22;;;-4.46;95.37
84445;BME280;74683;48.402;10.596;2024-01-30T00:45:58;97928.59;;;-4.47;95.37
84445;BME280;74683;48.402;10.596;2024-01-30T00:48:25;97934.19;;;-4.48;95.22
84445;BME280;74683;48.402;10.596;2024-01-30T00:50:52;97939.31;;;-4.47;95.18
84445;BME280;74683;48.402;10.596;2024-01-30T00:53:18;97933.59;;;-4.50;95.73
84445;BME280;74683;48.402;10.596;2024-01-30T00:55:45;97932.75;;;-4.51;96.21
84445;BME280;74683;48.402;10.596;2024-01-30T00:58:12;97932.81;;;-4.57;95.39
84445;BME280;74683;48.402;10.596;2024-01-30T01:00:39;97939.38;;;-4.53;95.19
84445;BME280;74683;48.402;10.596;2024-01-30T01:03:06;97944.53;;;-4.52;95.72
84445;BME280;74683;48.402;10.596;2024-01-30T01:05:32;97949.72;;;-4.57;96.02
84445;BME280;74683;48.402;10.596;2024-01-30T01:07:59;97942.53;;;-4.63;95.76
84445;BME280;74683;48.402;10.596;2024-01-30T01:10:25;97942.53;;;-4.63;95.62
84445;BME280;74683;48.402;10.596;2024-01-30T01:12:53;97944.38;;;-4.64;95.48
84445;BME280;74683;48.402;10.596;2024-01-30T01:15:21;97946.69;;;-4.67;95.54
84445;BME280;74683;48.402;10.596;2024-01-30T01:17:48;97947.72;;;-4.68;96.06
84445;BME280;74683;48.402;10.596;2024-01-30T01:20:15;97951.69;;;-4.71;95.79
84445;BME280;74683;48.402;10.596;2024-01-30T01:22:42;97949.41;;;-4.74;96.25
84445;BME280;74683;48.402;10.596;2024-01-30T01:25:09;97946.50;;;-4.72;95.89
84445;BME280;74683;48.402;10.596;2024-01-30T01:27:36;97951.88;;;-4.72;96.28
84445;BME280;74683;48.402;10.596;2024-01-30T01:30:10;97952.72;;;-4.72;95.70
84445;BME280;74683;48.402;10.596;2024-01-30T01:32:38;97951.84;;;-4.66;95.32
84445;BME280;74683;48.402;10.596;2024-01-30T01:35:05;97954.72;;;-4.67;96.27
84445;BME280;74683;48.402;10.596;2024-01-30T01:37:32;97951.44;;;-4.69;95.48
84445;BME280;74683;48.402;10.596;2024-01-30T01:39:59;97944.47;;;-4.77;95.28
84445;BME280;74683;48.402;10.596;2024-01-30T01:42:26;97933.78;;;-4.83;95.79
84445;BME280;74683;48.402;10.596;2024-01-30T01:44:53;97939.16;;;-4.83;95.23
84445;BME280;74683;48.402;10.596;2024-01-30T01:47:20;97935.47;;;-4.89;95.19
84445;BME280;74683;48.402;10.596;2024-01-30T01:49:47;97932.19;;;-4.91;96.18
84445;BME280;74683;48.402;10.596;2024-01-30T01:52:14;97937.75;;;-4.93;96.18
84445;BME280;74683;48.402;10.596;2024-01-30T01:54:42;97936.47;;;-4.83;95.40
84445;BME280;74683;48.402;10.596;2024-01-30T01:57:08;97935.22;;;-4.81;95.40
84445;BME280;74683;48.402;10.596;2024-01-30T01:59:36;97941.19;;;-4.79;95.75
84445;BME280;74683;48.402;10.596;2024-01-30T02:02:03;97935.78;;;-4.72;95.56
84445;BME280;74683;48.402;10.596;2024-01-30T02:04:31;97936.19;;;-4.69;95.81
84445;BME280;74683;48.402;10.596;2024-01-30T02:06:57;97936.75;;;-4.60;95.28
84445;BME280;74683;48.402;10.596;2024-01-30T02:09:25;97933.41;;;-4.55;96.02
84445;BME280;74683;48.402;10.596;2024-01-30T02:11:51;97934.00;;;-4.53;95.78
84445;BME280;74683;48.402;10.596;2024-01-30T02:14:18;97935.22;;;-4.49;95.43
84445;BME280;74683;48.402;10.596;2024-01-30T02:16:45;97937.31;;;-4.51;95.30
84445;BME280;74683;48.402;10.596;2024-01-30T02:19:11;97936.25;;;-4.50;95.46
84445;BME280;74683;48.402;10.596;2024-01-30T02:21:38;97933.59;;;-4.50;96.40
84445;BME280;74683;48.402;10.596;2024-01-30T02:24:05;97937.47;;;-4.46;95.88
84445;BME280;74683;48.402;10.596;2024-01-30T02:26:32;97929.78;;;-4.43;95.87
84445;BME280;74683;48.402;10.596;2024-01-30T02:28:58;97926.50;;;-4.45;95.84
84445;BME280;74683;48.402;10.596;2024-01-30T02:31:26;97928.59;;;-4.47;95.87
84445;BME280;74683;48.402;10.596;2024-01-30T02:33:52;97929.41;;;-4.46;96.13
84445;BME280;74683;48.402;10.596;2024-01-30T02:36:19;97937.47;;;-4.46;95.61
84445;BME280;74683;48.402;10.596;2024-01-30T02:38:46;97927.16;;;-4.49;96.28
84445;BME280;74683;48.402;10.596;2024-01-30T02:41:13;97928.84;;;-4.55;96.51
84445;BME280;74683;48.402;10.596;2024-01-30T02:43:40;97932.41;;;-4.61;95.67
84445;BME280;74683;48.402;10.596;2024-01-30T02:46:07;97927.88;;;-4.60;95.68
84445;BME280;74683;48.402;10.596;2024-01-30T02:48:33;97923.09;;;-4.58;95.64
84445;BME280;74683;48.402;10.596;2024-01-30T02:51:00;97922.06;;;-4.57;95.57
84445;BME280;74683;48.402;10.596;2024-01-30T02:53:27;97916.47;;;-4.56;96.30
84445;BME280;74683;48.402;10.596;2024-01-30T02:55:53;97925.34;;;-4.55;96.26
84445;BME280;74683;48.402;10.596;2024-01-30T02:58:20;97916.47;;;-4.56;96.36
84445;BME280;74683;48.402;10.596;2024-01-30T03:00:46;97917.53;;;-4.57;95.96
84445;BME280;74683;48.402;10.596;2024-01-30T03:03:13;97915.03;;;-4.52;95.57
84445;BME280;74683;48.402;10.596;2024-01-30T03:05:40;97921.59;;;-4.48;95.42
84445;BME280;74683;48.402;10.596;2024-01-30T03:08:06;97919.28;;;-4.44;96.44
84445;BME280;74683;48.402;10.596;2024-01-30T03:10:33;97912.00;;;-4.37;95.75
84445;BME280;74683;48.402;10.596;2024-01-30T03:13:00;97910.72;;;-4.35;96.59
84445;BME280;74683;48.402;10.596;2024-01-30T03:15:27;97909.75;;;-4.40;95.43
84445;BME280;74683;48.402;10.596;2024-01-30T03:17:53;97907.94;;;-4.46;96.27
84445;BME280;74683;48.402;10.596;2024-01-30T03:20:20;97902.19;;;-4.50;95.72
84445;BME280;74683;48.402;10.596;2024-01-30T03:22:47;97899.13;;;-4.53;95.46
84445;BME280;74683;48.402;10.596;2024-01-30T03:25:13;97903.50;;;-4.59;96.02
84445;BME280;74683;48.402;10.596;2024-01-30T03:27:40;97903.72;;;-4.60;96.16
84445;BME280;74683;48.402;10.596;2024-01-30T03:30:07;97902.91;;;-4.61;95.35
84445;BME280;74683;48.402;10.596;2024-01-30T03:32:34;97907.22;;;-4.60;96.40
84445;BME280;74683;48.402;10.596;2024-01-30T03:35:01;97903.72;;;-4.60;95.61
84445;BME280;74683;48.402;10.596;2024-01-30T03:37:28;97902.28;;;-4.63;96.47
84445;BME280;74683;48.402;10.596;2024-01-30T03:39:54;97902.34;;;-4.70;96.45
84445;BME280;74683;48.402;10.596;2024-01-30T03:42:21;97901.13;;;-4.74;95.47
84445;BME280;74683;48.402;10.596;2024-01-30T03:44:48;97911.03;;;-4.74;95.57
84445;BME280;74683;48.402;10.596;2024-01-30T03:47:18;97899.53;;;-4.81;95.35
84445;BME280;74683;48.402;10.596;2024-01-30T03:49:45;97899.34;;;-4.86;95.28
84445;BME280;74683;48.402;10.596;2024-01-30T03:52:12;97896.28;;;-4.90;95.55
84445;BME280;74683;48.402;10.596;2024-01-30T03:54:38;97887.84;;;-4.94;95.79
84445;BME280;74683;48.402;10.596;2024-01-30T03:57:05;97895.50;;;-4.97;96.32
84445;BME280;74683;48.402;10.596;2024-01-30T03:59:32;97906.22;;;-4.97;96.09
84445;BME280;74683;48.402;10.596;2024-01-30T04:01:59;97898.81;;;-5.02;95.66
84445;BME280;74683;48.402;10.596;2024-01-30T04:04:26;97899.66;;;-5.01;95.94
84445;BME280;74683;48.402;10.596;2024-01-30T04:06:53;97902.34;;;-5.01;95.82
84445;BME280;74683;48.402;10.596;2024-01-30T04:09:20;97902.34;;;-5.01;95.91
84445;BME280;74683;48.402;10.596;2024-01-30T04:11:46;97902.13;;;-5.00;95.37
84445;BME280;74683;48.402;10.596;2024-01-30T04:14:13;97902.94;;;-4.99;95.43
84445;BME280;74683;48.402;10.596;2024-01-30T04:16:40;97903.72;;;-4.92;95.61
84445;BME280;74683;48.402;10.596;2024-01-30T04:19:06;97901.66;;;-4.90;95.28
84445;BME280;74683;48.402;10.596;2024-01-30T04:21:33;97904.13;;;-4.88;95.98
84445;BME280;74683;48.402;10.596;2024-01-30T04:23:59;97905.38;;;-4.91;95.55
84445;BME280;74683;48.402;10.596;2024-01-30T04:26:26;97909.94;;;-4.92;95.63
84445;BME280;74683;48.402;10.596;2024-01-30T04:28:53;97903.31;;;-4.96;95.34
84445;BME280;74683;48.402;10.596;2024-01-30T04:31:19;97901.31;;;-5.00;96.08
84445;BME280;74683;48.402;10.596;2024-01-30T04:33:46;97901.31;;;-5.00;95.84
84445;BME280;74683;48.402;10.596;2024-01-30T04:36:13;97898.63;;;-5.00;95.60
84445;BME280;74683;48.402;10.596;2024-01-30T04:38:40;97899.03;;;-5.03;96.22
84445;BME280;74683;48.402;10.596;2024-01-30T04:41:07;97902.34;;;-5.01;96.03
84445;BME280;74683;48.402;10.596;2024-01-30T04:43:33;97899.03;;;-5.03;95.99
84445;BME280;74683;48.402;10.596;2024-01-30T04:46:00;97901.34;;;-5.07;95.45
84445;BME280;74683;48.402;10.596;2024-01-30T04:48:26;97898.44;;;-5.05;96.32
84445;BME280;74683;48.402;10.596;2024-01-30T04:50:53;97900.50;;;-5.07;95.31
84445;BME280;74683;48.402;10.596;2024-01-30T04:53:20;97902.59;;;-5.09;95.39
84445;BME280;74683;48.402;10.596;2024-01-30T04:55:47;97899.47;;;-5.06;95.34
84445;BME280;74683;48.402;10.596;2024-01-30T04:58:13;97902.75;;;-5.04;95.72
84445;BME280;74683;48.402;10.596;2024-01-30T05:00:40;97898.00;;;-5.02;95.31
84445;BME280;74683;48.402;10.596;2024-01-30T05:03:07;97905.84;;;-5.01;95.47
84445;BME280;74683;48.402;10.596;2024-01-30T05:05:34;97904.19;;;-5.02;96.09
84445;BME280;74683;48.402;10.596;2024-01-30T05:08:00;97907.50;;;-5.00;95.16
84445;BME280;74683;48.402;10.596;2024-01-30T05:10:28;97906.03;;;-5.02;95.40
84445;BME280;74683;48.402;10.596;2024-01-30T05:12:55;97906.69;;;-5.07;95.77
84445;BME280;74683;48.402;10.596;2024-01-30T05:15:22;97905.88;;;-5.07;95.22
84445;BME280;74683;48.402;10.596;2024-01-30T05:17:48;97907.72;;;-5.01;95.49
84445;BME280;74683;48.402;10.596;2024-01-30T05:20:16;97925.84;;;-5.03;96.06
84445;BME280;74683;48.402;10.596;2024-01-30T05:22:43;97924.19;;;-5.04;95.14
84445;BME280;74683;48.402;10.596;2024-01-30T05:25:12;97921.13;;;-5.08;96.03
84445;BME280;74683;48.402;10.596;2024-01-30T05:27:39;97925.28;;;-5.12;95.70
84445;BME280;74683;48.402;10.596;2024-01-30T05:30:07;97926.16;;;-5.18;95.67
84445;BME280;74683;48.402;10.596;2024-01-30T05:32:34;97929.44;;;-5.23;96.04
84445;BME280;74683;48.402;10.596;2024-01-30T05:35:01;97928.25;;;-5.27;95.08
84445;BME280;74683;48.402;10.596;2024-01-30T05:37:28;97929.50;;;-5.29;95.08
84445;BME280;74683;48.402;10.596;2024-01-30T05:39:54;97930.13;;;-5.34;95.27
84445;BME280;74683;48.402;10.596;2024-01-30T05:42:21;97930.72;;;-5.32;95.59
84445;BME280;74683;48.402;10.596;2024-01-30T05:44:47;97931.75;;;-5.26;95.72
84445;BME280;74683;48.402;10.596;2024-01-30T05:47:14;97929.06;;;-5.33;95.38
84445;BME280;74683;48.402;10.596;2024-01-30T05:49:41;97935.31;;;-5.39;94.77
84445;BME280;74683;48.402;10.596;2024-01-30T05:52:08;97934.47;;;-5.39;95.86
84445;BME280;74683;48.402;10.596;2024-01-30T05:54:36;97932.22;;;-5.42;95.26
84445;BME280;74683;48.402;10.596;2024-01-30T05:57:03;97937.97;;;-5.39;95.66
84445;BME280;74683;48.402;10.596;2024-01-30T05:59:29;97930.34;;;-5.35;95.10
84445;BME280;74683;48.402;10.596;2024-01-30T06:01:56;97934.63;;;-5.28;95.40
84445;BME280;74683;48.402;10.596;2024-01-30T06:04:23;97933.41;;;-5.32;94.96
84445;BME280;74683;48.402;10.596;2024-01-30T06:06:49;97928.69;;;-5.36;95.27
84445;BME280;74683;48.402;10.596;2024-01-30T06:09:16;97938.81;;;-5.38;95.01
84445;BME280;74683;48.402;10.596;2024-01-30T06:11:43;97933.22;;;-5.37;95.27
84445;BME280;74683;48.402;10.596;2024-01-30T06:14:09;97940.22;;;-5.36;94.92
84445;BME280;74683;48.402;10.596;2024-01-30T06:16:36;97941.47;;;-5.38;95.50
84445;BME280;74683;48.402;10.596;2024-01-30T06:19:03;97940.22;;;-5.36;95.37
84445;BME280;74683;48.402;10.596;2024-01-30T06:21:29;97936.91;;;-5.31;95.01
84445;BME280;74683;48.402;10.596;2024-01-30T06:23:57;97938.75;;;-5.32;95.41
84445;BME280;74683;48.402;10.596;2024-01-30T06:26:23;97939.19;;;-5.28;95.05
84445;BME280;74683;48.402;10.596;2024-01-30T06:28:50;97941.03;;;-5.29;94.99
84445;BME280;74683;48.402;10.596;2024-01-30T06:31:16;97934.63;;;-5.28;95.86
84445;BME280;74683;48.402;10.596;2024-01-30T06:33:43;97938.97;;;-5.27;95.08
84445;BME280;74683;48.402;10.596;2024-01-30T06:36:09;97935.25;;;-5.26;95.02
84445;BME280;74683;48.402;10.596;2024-01-30T06:38:36;97940.63;;;-5.32;94.86
84445;BME280;74683;48.402;10.596;2024-01-30T06:41:03;97933.22;;;-5.37;94.96
84445;BME280;74683;48.402;10.596;2024-01-30T06:43:29;97945.19;;;-5.39;95.78
84445;BME280;74683;48.402;10.596;2024-01-30T06:45:56;97936.94;;;-5.38;95.44
84445;BME280;74683;48.402;10.596;2024-01-30T06:48:23;97937.97;;;-5.39;95.20
84445;BME280;74683;48.402;10.596;2024-01-30T06:50:49;97943.34;;;-5.39;94.88
84445;BME280;74683;48.402;10.596;2024-01-30T06:53:17;97945.38;;;-5.41;94.82
84445;BME280;74683;48.402;10.596;2024-01-30T06:55:43;97940.44;;;-5.37;95.75
84445;BME280;74683;48.402;10.596;2024-01-30T06:58:10;97941.28;;;-5.37;95.07
84445;BME280;74683;48.402;10.596;2024-01-30T07:00:37;97939.78;;;-5.33;95.35
84445;BME280;74683;48.402;10.596;2024-01-30T07:03:04;97943.94;;;-5.30;95.62
84445;BME280;74683;48.402;10.596;2024-01-30T07:05:31;97941.03;;;-5.29;95.21
84445;BME280;74683;48.402;10.596;2024-01-30T07:07:58;97941.00;;;-5.22;95.18
84445;BME280;74683;48.402;10.596;2024-01-30T07:10:25;97947.16;;;-5.15;94.91
84445;BME280;74683;48.402;10.596;2024-01-30T07:12:52;97941.34;;;-5.05;95.72
84445;BME280;74683;48.402;10.596;2024-01-30T07:15:18;97938.63;;;-4.99;95.41
84445;BME280;74683;48.402;10.596;2024-01-30T07:17:46;97939.84;;;-4.95;94.83
84445;BME280;74683;48.402;10.596;2024-01-30T07:20:13;97946.22;;;-4.89;95.65
84445;BME280;74683;48.402;10.596;2024-01-30T07:22:43;97946.16;;;-4.82;95.39
84445;BME280;74683;48.402;10.596;2024-01-30T07:25:10;97952.72;;;-4.72;95.39
84445;BME280;74683;48.402;10.596;2024-01-30T07:27:37;97951.22;;;-4.68;94.72
84445;BME280;74683;48.402;10.596;2024-01-30T07:30:04;97955.75;;;-4.62;95.15
84445;BME280;74683;48.402;10.596;2024-01-30T07:32:31;97950.31;;;-4.55;94.92
84445;BME280;74683;48.402;10.596;2024-01-30T07:34:58;97953.94;;;-4.43;95.29
84445;BME280;74683;48.402;10.596;2024-01-30T07:37:34;97954.50;;;-4.34;95.23
84445;BME280;74683;48.402;10.596;2024-01-30T07:40:02;97955.28;;;-4.27;94.57
84445;BME280;74683;48.402;10.596;2024-01-30T07:42:29;97955.59;;;-4.17;94.57
84445;BME280;74683;48.402;10.596;2024-01-30T07:44:56;97955.72;;;-4.05;94.67
84445;BME280;74683;48.402;10.596;2024-01-30T07:47:22;97964.09;;;-3.95;94.18
84445;BME280;74683;48.402;10.596;2024-01-30T07:49:49;97966.28;;;-3.85;93.99
84445;BME280;74683;48.402;10.596;2024-01-30T07:52:16;97961.22;;;-3.75;94.17
84445;BME280;74683;48.402;10.596;2024-01-30T07:54:43;97967.53;;;-3.63;94.25
84445;BME280;74683;48.402;10.596;2024-01-30T07:57:10;97973.41;;;-3.54;93.78
84445;BME280;74683;48.402;10.596;2024-01-30T07:59:36;97982.41;;;-3.42;94.41
84445;BME280;74683;48.402;10.596;2024-01-30T08:02:03;97972.09;;;-3.27;94.60
84445;BME280;74683;48.402;10.596;2024-01-30T08:04:30;97973.19;;;-3.16;93.72
84445;BME280;74683;48.402;10.596;2024-01-30T08:06:57;97968.56;;;-3.09;93.79
84445;BME280;74683;48.402;10.596;2024-01-30T08:09:23;97983.81;;;-3.03;93.20
84445;BME280;74683;48.402;10.596;2024-01-30T08:11:50;97980.84;;;-2.95;94.03
84445;BME280;74683;48.402;10.596;2024-01-30T08:14:16;97975.75;;;-2.84;93.64
84445;BME280;74683;48.402;10.596;2024-01-30T08:16:43;97978.47;;;-2.73;93.72
84445;BME280;74683;48.402;10.596;2024-01-30T08:19:09;97975.00;;;-2.62;93.24
84445;BME280;74683;48.402;10.596;2024-01-30T08:21:36;97972.81;;;-2.53;93.69
84445;BME280;74683;48.402;10.596;2024-01-30T08:24:05;97972.25;;;-2.43;93.75
84445;BME280;74683;48.402;10.596;2024-01-30T08:26:33;97971.94;;;-2.35;93.49
84445;BME280;74683;48.402;10.596;2024-01-30T08:29:00;97975.00;;;-2.32;92.81
84445;BME280;74683;48.402;10.596;2024-01-30T08:31:27;97975.09;;;-2.26;92.59
84445;BME280;74683;48.402;10.596;2024-01-30T08:33:54;97970.69;;;-2.21;92.55
84445;BME280;74683;48.402;10.596;2024-01-30T08:36:21;97974.22;;;-2.09;92.00
84445;BME280;74683;48.402;10.596;2024-01-30T08:38:47;97973.88;;;-1.89;92.49
84445;BME280;74683;48.402;10.596;2024-01-30T08:41:14;97967.34;;;-1.69;92.91
84445;BME280;74683;48.402;10.596;2024-01-30T08:43:41;97966.88;;;-1.55;92.93
84445;BME280;74683;48.402;10.596;2024-01-30T08:46:07;97976.13;;;-1.39;91.76
84445;BME280;74683;48.402;10.596;2024-01-30T08:48:35;97973.19;;;-1.26;91.57
84445;BME280;74683;48.402;10.596;2024-01-30T08:51:02;97970.78;;;-1.10;91.85
84445;BME280;74683;48.402;10.596;2024-01-30T08:53:29;97964.91;;;-0.96;90.85
84445;BME280;74683;48.402;10.596;2024-01-30T08:55:56;97963.50;;;-0.70;90.58
84445;BME280;74683;48.402;10.596;2024-01-30T08:58:25;97963.84;;;-0.09;91.06
84445;BME280;74683;48.402;10.596;2024-01-30T09:00:52;97964.16;;;0.83;89.93
84445;BME280;74683;48.402;10.596;2024-01-30T09:03:19;97958.50;;;1.83;87.63
84445;BME280;74683;48.402;10.596;2024-01-30T09:05:46;97959.72;;;2.29;82.91
84445;BME280;74683;48.402;10.596;2024-01-30T09:08:12;97952.19;;;2.83;81.83
84445;BME280;74683;48.402;10.596;2024-01-30T09:10:39;97960.94;;;3.63;80.53
84445;BME280;74683;48.402;10.596;2024-01-30T09:13:07;97956.41;;;4.30;78.92
84445;BME280;74683;48.402;10.596;2024-01-30T09:15:34;97959.31;;;4.89;75.80
84445;BME280;74683;48.402;10.596;2024-01-30T09:18:02;97957.03;;;5.32;74.29
84445;BME280;74683;48.402;10.596;2024-01-30T09:20:28;97956.31;;;5.66;72.43
84445;BME280;74683;48.402;10.596;2024-01-30T09:22:59;97956.88;;;6.12;71.02
84445;BME280;74683;48.402;10.596;2024-01-30T09:25:26;97959.78;;;6.55;69.43
84445;BME280;74683;48.402;10.596;2024-01-30T09:27:52;97959.09;;;6.97;68.27
84445;BME280;74683;48.402;10.596;2024-01-30T09:30:19;97956.91;;;7.23;67.29
84445;BME280;74683;48.402;10.596;2024-01-30T09:32:46;97962.47;;;7.61;66.68
84445;BME280;74683;48.402;10.596;2024-01-30T09:35:18;97954.84;;;7.76;65.01
84445;BME280;74683;48.402;10.596;2024-01-30T09:37:45;97963.72;;;8.06;63.89
84445;BME280;74683;48.402;10.596;2024-01-30T09:40:11;97951.56;;;8.36;62.83
84445;BME280;74683;48.402;10.596;2024-01-30T09:42:39;97951.84;;;8.67;62.23
84445;BME280;74683;48.402;10.596;2024-01-30T09:45:06;97953.75;;;9.27;60.32
84445;BME280;74683;48.402;10.596;2024-01-30T09:47:44;97953.84;;;9.49;59.34
84445;BME280;74683;48.402;10.596;2024-01-30T09:50:13;97952.47;;;9.88;58.94
84445;BME280;74683;48.402;10.596;2024-01-30T09:52:41;97953.94;;;10.07;57.95
84445;BME280;74683;48.402;10.596;2024-01-30T09:55:09;97953.06;;;10.34;57.82
84445;BME280;74683;48.402;10.596;2024-01-30T09:57:35;97957.06;;;10.28;57.03
84445;BME280;74683;48.402;10.596;2024-01-30T10:00:03;97949.69;;;10.38;56.96
84445;BME280;74683;48.402;10.596;2024-01-30T10:02:33;97950.06;;;10.67;55.87
84445;BME280;74683;48.402;10.596;2024-01-30T10:05:01;97950.75;;;10.50;55.57
84445;BME280;74683;48.402;10.596;2024-01-30T10:07:28;97948.78;;;9.92;57.18
84445;BME280;74683;48.402;10.596;2024-01-30T10:09:54;97951.28;;;9.53;58.50
84445;BME280;74683;48.402;10.596;2024-01-30T10:12:26;97945.72;;;9.58;58.55
84445;BME280;74683;48.402;10.596;2024-01-30T10:14:52;97943.56;;;9.68;58.11
84445;BME280;74683;48.402;10.596;2024-01-30T10:17:20;97936.06;;;9.46;59.12
84445;BME280;74683;48.402;10.596;2024-01-30T10:19:59;97943.75;;;8.89;60.35
84445;BME280;74683;48.402;10.596;2024-01-30T10:22:26;97943.94;;;8.79;61.91
84445;BME280;74683;48.402;10.596;2024-01-30T10:24:53;97938.38;;;8.52;62.47
84445;BME280;74683;48.402;10.596;2024-01-30T10:27:26;97939.53;;;8.65;62.55
84445;BME280;74683;48.402;10.596;2024-01-30T10:29:53;97935.97;;;8.31;62.35
84445;BME280;74683;48.402;10.596;2024-01-30T10:32:20;97935.53;;;8.05;64.27
84445;BME280;74683;48.402;10.596;2024-01-30T10:34:47;97943.47;;;7.88;64.47
84445;BME280;74683;48.402;10.596;2024-01-30T10:37:15;97935.41;;;7.78;66.15
84445;BME280;74683;48.402;10.596;2024-01-30T10:39:44;97941.03;;;7.87;65.79
84445;BME280;74683;48.402;10.596;2024-01-30T10:42:17;97932.75;;;7.92;65.28
84445;BME280;74683;48.402;10.596;2024-01-30T10:44:55;97931.72;;;7.88;65.85
84445;BME280;74683;48.402;10.596;2024-01-30T10:47:26;97928.97;;;7.69;64.72
84445;BME280;74683;48.402;10.596;2024-01-30T10:49:55;97919.94;;;7.68;65.82
84445;BME280;74683;48.402;10.596;2024-01-30T10:52:23;97926.72;;;7.52;66.44
84445;BME280;74683;48.402;10.596;2024-01-30T10:54:49;97926.09;;;7.36;65.99
84445;BME280;74683;48.402;10.596;2024-01-30T10:57:16;97926.22;;;7.26;66.08
84445;BME280;74683;48.402;10.596;2024-01-30T10:59:44;97916.09;;;7.27;67.60
84445;BME280;74683;48.402;10.596;2024-01-30T11:02:12;97920.50;;;7.28;66.80
84445;BME280;74683;48.402;10.596;2024-01-30T11:04:42;97916.50;;;7.39;66.39
84445;BME280;74683;48.402;10.596;2024-01-30T11:12:25;97920.47;;;7.89;65.28
84445;BME280;74683;48.402;10.596;2024-01-30T11:15:21;97920.22;;;7.86;65.83
84445;BME280;74683;48.402;10.596;2024-01-30T11:17:51;97912.09;;;7.81;65.42
84445;BME280;74683;48.402;10.596;2024-01-30T11:20:25;97912.59;;;8.01;65.08
84445;BME280;74683;48.402;10.596;2024-01-30T11:22:55;97905.19;;;8.21;64.86
84445;BME280;74683;48.402;10.596;2024-01-30T11:25:23;97907.13;;;8.34;65.32
84445;BME280;74683;48.402;10.596;2024-01-30T11:27:54;97902.06;;;8.46;65.77
84445;BME280;74683;48.402;10.596;2024-01-30T11:30:24;97900.34;;;8.31;64.44
84445;BME280;74683;48.402;10.596;2024-01-30T11:33:11;97898.28;;;8.23;65.03
84445;BME280;74683;48.402;10.596;2024-01-30T11:35:40;97902.38;;;8.26;64.41
84445;BME280;74683;48.402;10.596;2024-01-30T11:38:09;97896.34;;;8.43;64.46
84445;BME280;74683;48.402;10.596;2024-01-30T11:40:39;97899.41;;;8.55;64.33
84445;BME280;74683;48.402;10.596;2024-01-30T11:43:08;97884.94;;;8.68;64.26
84445;BME280;74683;48.402;10.596;2024-01-30T11:45:36;97890.63;;;8.72;63.88
84445;BME280;74683;48.402;10.596;2024-01-30T11:48:03;97886.88;;;8.81;64.46
84445;BME280;74683;48.402;10.596;2024-01-30T11:50:32;97876.94;;;8.99;63.77
84445;BME280;74683;48.402;10.596;2024-01-30T11:53:00;97884.75;;;9.06;63.63
84445;BME280;74683;48.402;10.596;2024-01-30T11:55:27;97876.13;;;8.99;63.68
84445;BME280;74683;48.402;10.596;2024-01-30T11:58:00;97885.84;;;8.91;62.86
84445;BME280;74683;48.402;10.596;2024-01-30T12:00:26;97872.16;;;8.91;63.17
84445;BME280;74683;48.402;10.596;2024-01-30T12:02:54;97873.47;;;8.94;63.52
84445;BME280;74683;48.402;10.596;2024-01-30T12:05:25;97870.00;;;9.02;63.38
84445;BME280;74683;48.402;10.596;2024-01-30T12:07:52;97866.75;;;9.13;63.41
84445;BME280;74683;48.402;10.596;2024-01-30T12:10:19;97866.31;;;9.34;62.83
84445;BME280;74683;48.402;10.596;2024-01-30T12:12:47;97863.66;;;9.56;62.61
84445;BME280;74683;48.402;10.596;2024-01-30T12:15:16;97858.34;;;9.60;61.29
84445;BME280;74683;48.402;10.596;2024-01-30T12:17:42;97858.16;;;9.56;61.32
84445;BME280;74683;48.402;10.596;2024-01-30T12:20:14;97858.38;;;9.46;62.19
84445;BME280;74683;48.402;10.596;2024-01-30T12:22:43;97852.28;;;9.49;62.45
84445;BME280;74683;48.402;10.596;2024-01-30T12:27:46;97846.41;;;10.00;62.02
84445;BME280;74683;48.402;10.596;2024-01-30T12:30:13;97846.31;;;10.28;61.42
84445;BME280;74683;48.402;10.596;2024-01-30T12:32:42;97842.22;;;10.48;60.60
84445;BME280;74683;48.402;10.596;2024-01-30T12:35:14;97848.66;;;10.74;59.63
84445;BME280;74683;48.402;10.596;2024-01-30T12:37:43;97848.09;;;10.95;58.87
84445;BME280;74683;48.402;10.596;2024-01-30T12:40:11;97850.25;;;11.06;59.27
84445;BME280;74683;48.402;10.596;2024-01-30T12:42:43;97849.72;;;10.96;58.78
84445;BME280;74683;48.402;10.596;2024-01-30T12:45:13;97842.31;;;11.05;59.54
84445;BME280;74683;48.402;10.596;2024-01-30T12:47:41;97833.28;;;11.22;58.59
84445;BME280;74683;48.402;10.596;2024-01-30T12:50:09;97841.91;;;11.46;57.95
84445;BME280;74683;48.402;10.596;2024-01-30T12:52:36;97838.44;;;11.80;56.21
84445;BME280;74683;48.402;10.596;2024-01-30T12:55:04;97832.88;;;12.15;55.51
84445;BME280;74683;48.402;10.596;2024-01-30T12:57:31;97827.16;;;12.28;55.15
84445;BME280;74683;48.402;10.596;2024-01-30T12:59:58;97830.69;;;12.46;53.29
84445;BME280;74683;48.402;10.596;2024-01-30T13:02:24;97824.34;;;12.54;53.03